Friday, January 19, 2018, 1:42 AM GMT
Back to Local

CYYG, Charlottetown, P. E. I.

Location: , , Canada Lat: 46.283
Local Time: 1:42 AM GMT ( 1:42 GMT) Lon: -63.133
Time Zone: GMT Elev: 157 ft

Show me the last for .
Show Coded

Time T Td Feel RH Dir Speed Gust Alt SLP Vis Weather Sky Remarks
2018-01-19 01:00 19 16 10 85 300° 7 - 29.77 29.78 15 FEW015 None
2018-01-19 00:00 21 16 11 79 300° 9 - 29.77 29.78 15 SCT014 None
2018-01-18 23:00 21 18 8 85 320° 14 - 29.74 29.75 15 SCT014 None
2018-01-18 22:00 23 18 12 79 310° 10 - 29.74 29.75 12 FEW016 SCT035 BKN260 None
2018-01-18 21:00 25 21 15 85 300° 9 - 29.74 29.75 12 FEW015 BKN032 None
2018-01-18 20:16 27 23 19 86 270° 7 - 29.74 29.75 12 SCT010 BKN020 None
2018-01-18 20:00 27 23 20 86 290° 6 - 29.73 29.75 10 -SN OVC010 None
2018-01-18 19:12 27 23 17 86 280° 10 - 29.74 29.75 8 -SN OVC008 None
2018-01-18 19:00 27 25 19 92 280° 7 - 29.73 29.75 8 OVC008 None
2018-01-18 18:34 28 25 20 86 250° 9 - 29.73 29.75 8 OVC008 None
2018-01-18 18:00 28 25 20 86 250° 8 - 29.73 29.74 10 BKN006 BKN025 None
2018-01-18 17:40 28 25 23 86 240° 5 - 29.73 29.74 10 FEW004 SCT035 SCT260 None
2018-01-18 17:00 27 25 18 92 250° 8 - 29.73 29.74 8 OVC004 None
2018-01-18 16:00 28 25 21 86 250° 7 - 29.77 29.78 8 -SN BKN004 OVC040 Pressure falling rapidly
2018-01-18 15:00 28 25 20 86 270° 8 - 29.80 29.81 8 -SN BKN005 OVC040 None
2018-01-18 14:57 28 25 19 86 260° 10 - 29.80 29.81 8 -SN BKN005 OVC040 None
2018-01-18 14:38 27 25 17 92 230° 9 - 29.81 29.82 10 -SN SCT004 BKN033 OVC044 None
2018-01-18 14:00 27 25 17 92 210° 9 - 29.82 29.83 6 -SN OVC004 None
2018-01-18 13:00 27 25 21 92 300° 5 - 29.80 29.81 8 -SN BKN003 OVC043 None
2018-01-18 12:13 27 25 23 92 Variable 3 - 29.79 29.80 8 -SN BKN004 BKN045 None
2018-01-18 12:00 27 25 - 92 80° 2 - 29.78 29.79 8 -SN SCT003 BKN053 None
2018-01-18 11:00 27 27 23 100 330° 3 - 29.80 29.81 6 -SN BR BKN005 OVC015 None
2018-01-18 10:00 27 27 21 100 350° 5 - 29.81 29.82 4 -SN BR FEW004 OVC017 None
2018-01-18 09:43 27 27 20 100 360° 6 - 29.81 29.83 6 -SN BR FEW004 OVC017 None
2018-01-18 09:00 27 27 20 100 350° 6 - 29.83 29.84 6 -SN BR BKN005 OVC015 None
2018-01-18 08:28 27 27 20 100 360° 6 - 29.83 29.84 6 -SN BKN004 OVC018 None
2018-01-18 08:00 27 27 19 100 360° 7 - 29.83 29.84 6 -SN SCT004 OVC017 Pressure falling rapidly
2018-01-18 07:55 27 27 20 100 360° 6 - 29.83 29.84 5 -SN FEW003 BKN017 OVC027 None
2018-01-18 07:00 27 25 18 92 20° 8 - 29.85 29.86 3 -SN OVC027 None
2018-01-18 06:16 27 27 18 100 20° 8 - 29.88 29.89 2 -SN VV050 SCT015 None
2018-01-18 06:00 27 27 18 100 20° 8 - 29.88 29.90 1 -SN VV015 None
2018-01-18 05:00 27 27 20 100 70° 6 - 29.92 29.93 0 -SN VV010 None
2018-01-18 04:00 27 27 20 100 90° 6 - 29.95 29.97 0 -SN VV011 Pressure falling rapidly
2018-01-18 03:45 27 25 19 92 100° 7 - 29.97 29.98 1 -SN VV014 Pressure falling rapidly
2018-01-18 03:00 27 25 21 92 100° 5 - 30.01 30.02 0 -SN VV012 None
2018-01-18 02:00 27 25 19 92 110° 7 - 30.05 30.06 0 -SN VV012 None

Support USWX by starting your Amazon purchase here.